Terminal Aerodrome Forecast
Issued by NWS San Angelo, TX

Home | Current Version | Previous Version | Text Only | Print | Product List | Glossary On
Versions: 1 2 3 4 5 6 7 8 9 10 11 12 13 14 15 16 17
000
FTUS44 KSJT 171700 RRA
TAFSJT
TAF
KSJT 171741Z 1718/1818 VRB05KT P6SM SCT035
     FM172200 12006KT P6SM VCSH BKN040
     FM180100 VRB05KT P6SM BKN100=

USA.gov is the U.S. government's official web portal to all federal, state and local government web resources and services.